Time;durP1;ratioP1;P1;durP2;ratioP2;P2;SDS_P1;SDS_P2;PMS_P1;PMS_P2;Temp;Humidity;BMP_temperature;BMP_pressure;BME280_temperature;BME280_humidity;BME280_pressure;Samples;Min_cycle;Max_cycle;Signal;HPM_P1;HPM_P2
2021/05/29 00:00:50;;;;;;;;;;;;;;;20.10;78.32;100638.78;5075000;28;1558;-43
2021/05/29 00:03:16;;;;;;;;;;;;;;;20.10;77.59;100644.16;5070585;28;1519;-43
2021/05/29 00:05:42;;;;;;;;;;;;;;;20.12;76.69;100652.06;5074064;28;1547;-43
2021/05/29 00:08:09;;;;;;;;;;;;;;;20.13;80.02;100646.53;5067034;28;1621;-43
2021/05/29 00:10:36;;;;;;;;;;;;;;;20.11;79.42;100645.81;5063410;28;1577;-43
2021/05/29 00:13:02;;;;;;;;;;;;;;;20.12;77.96;100647.53;5072345;28;1632;-43
2021/05/29 00:15:28;;;;;;;;;;;;;;;20.12;78.67;100642.16;5066762;28;1822;-43
2021/05/29 00:17:54;;;;;;;;;;;;;;;20.12;79.87;100647.53;5071356;28;1961;-43
2021/05/29 00:20:20;;;;;;;;;;;;;;;20.12;77.94;100652.91;5072549;28;1691;-44
2021/05/29 00:22:46;;;;;;;;;;;;;;;20.12;79.13;100639.47;5068472;28;1821;-43
2021/05/29 00:25:12;;;;;;;;;;;;;;;20.11;80.00;100648.50;5069830;28;1543;-43
2021/05/29 00:27:39;;;;;;;;;;;;;;;20.06;79.55;100648.09;5060220;28;1774;-43
2021/05/29 00:30:06;;;;;;;;;;;;;;;20.07;77.76;100668.56;5066919;28;1747;-43
2021/05/29 00:32:32;;;;;;;;;;;;;;;20.05;78.31;100655.31;5067316;28;1416;-44
2021/05/29 00:34:58;;;;;;;;;;;;;;;20.11;78.65;100663.78;5071441;28;1616;-43
2021/05/29 00:37:24;;;;;;;;;;;;;;;20.07;78.29;100655.16;5069925;28;2063;-44
2021/05/29 00:39:50;;;;;;;;;;;;;;;20.13;78.72;100661.78;5069685;28;1563;-43
2021/05/29 00:42:16;;;;;;;;;;;;;;;20.08;78.64;100654.19;5065027;28;1709;-44
2021/05/29 00:44:49;;;;;;;;;;;;;;;20.10;77.24;100648.66;5064204;28;1669;-43
2021/05/29 00:47:18;;;;;;;;;;;;;;;20.10;78.51;100641.47;5071992;28;1844;-43
2021/05/29 00:49:44;;;;;;;;;;;;;;;20.08;78.43;100650.66;5068673;28;1574;-43
2021/05/29 00:52:10;;;;;;;;;;;;;;;20.09;79.38;100663.91;5061096;28;1806;-43
2021/05/29 00:54:36;;;;;;;;;;;;;;;20.06;78.22;100646.25;5069867;28;1472;-43
2021/05/29 00:57:02;;;;;;;;;;;;;;;20.12;79.10;100668.16;5065772;28;1910;-43
2021/05/29 00:59:28;;;;;;;;;;;;;;;20.10;78.23;100665.63;5062024;28;1609;-44
2021/05/29 01:01:55;;;;;;;;;;;;;;;20.12;77.86;100658.25;5072745;28;1566;-43
2021/05/29 01:04:21;;;;;;;;;;;;;;;20.08;78.90;100661.41;5067954;28;1489;-43
2021/05/29 01:06:47;;;;;;;;;;;;;;;20.04;78.48;100652.78;5060415;28;1974;-43
2021/05/29 01:09:13;;;;;;;;;;;;;;;20.04;79.23;100667.03;5067847;28;1496;-44
2021/05/29 01:11:39;;;;;;;;;;;;;;;20.01;79.14;100655.75;5068403;28;1591;-44
2021/05/29 01:14:05;;;;;;;;;;;;;;;19.97;76.79;100654.34;5060399;28;1905;-43
2021/05/29 01:16:44;;;;;;;;;;;;;;;20.02;76.55;100658.28;5067629;28;1902;-44
2021/05/29 01:19:11;;;;;;;;;;;;;;;20.09;76.22;100661.22;5063954;28;1363;-44
2021/05/29 01:21:37;;;;;;;;;;;;;;;20.05;77.48;100647.28;5068193;28;1593;-43
2021/05/29 01:24:05;;;;;;;;;;;;;;;20.11;77.10;100666.47;5065650;28;1498;-43
2021/05/29 01:26:31;;;;;;;;;;;;;;;20.06;78.41;100654.31;5068510;28;1530;-43
2021/05/29 01:28:57;;;;;;;;;;;;;;;20.05;77.69;100651.78;5069975;28;1492;-43
2021/05/29 01:31:26;;;;;;;;;;;;;;;20.00;77.80;100648.69;5071360;28;1433;-43
2021/05/29 01:33:54;;;;;;;;;;;;;;;20.04;76.70;100655.47;5071932;28;1334;-43
2021/05/29 01:36:21;;;;;;;;;;;;;;;20.10;76.87;100673.66;5073266;28;1983;-45
2021/05/29 01:38:47;;;;;;;;;;;;;;;20.05;78.53;100668.75;5068912;28;1519;-43
2021/05/29 01:41:15;;;;;;;;;;;;;;;19.96;75.40;100666.06;5070469;28;1852;-43
2021/05/29 01:43:42;;;;;;;;;;;;;;;20.00;77.71;100665.63;5071505;28;2065;-43
2021/05/29 01:46:08;;;;;;;;;;;;;;;19.98;77.57;100674.84;5071268;28;1644;-43
2021/05/29 01:48:38;;;;;;;;;;;;;;;19.96;77.30;100663.41;5069791;28;1382;-43
2021/05/29 01:51:04;;;;;;;;;;;;;;;19.95;76.93;100667.91;5068157;28;1394;-43
2021/05/29 01:53:30;;;;;;;;;;;;;;;19.95;73.37;100646.41;5068558;28;1748;-43
2021/05/29 01:55:56;;;;;;;;;;;;;;;19.99;72.93;100657.72;5069417;28;1505;-44
2021/05/29 01:58:23;;;;;;;;;;;;;;;20.03;72.24;100661.81;5067114;28;1973;-43
2021/05/29 02:00:49;;;;;;;;;;;;;;;20.03;71.51;100661.81;5081216;22;3554;-77
2021/05/29 02:03:16;;;;;;;;;;;;;;;20.03;71.79;100668.03;5071726;28;1782;-77
2021/05/29 02:05:43;;;;;;;;;;;;;;;20.06;74.77;100664.22;5071314;28;1437;-78
2021/05/29 02:08:10;;;;;;;;;;;;;;;20.02;72.30;100662.81;5071132;28;1416;-77
2021/05/29 02:10:37;;;;;;;;;;;;;;;20.03;76.15;100669.84;5066332;28;1372;-77
2021/05/29 02:13:03;;;;;;;;;;;;;;;20.04;73.92;100676.94;5072388;28;1385;-77
2021/05/29 02:15:31;;;;;;;;;;;;;;;20.06;76.06;100670.44;5075745;28;1668;-79
2021/05/29 02:18:01;;;;;;;;;;;;;;;20.10;76.78;100681.72;5066715;28;1946;-78
2021/05/29 02:20:31;;;;;;;;;;;;;;;20.07;76.55;100679.31;5072435;28;1282;-77
2021/05/29 02:22:57;;;;;;;;;;;;;;;20.13;74.87;100686.78;5071311;28;1346;-78
2021/05/29 02:25:23;;;;;;;;;;;;;;;20.10;74.88;100671.00;5069578;28;1584;-77
2021/05/29 02:27:50;;;;;;;;;;;;;;;20.05;73.75;100684.84;5072588;28;1322;-78
2021/05/29 02:30:17;;;;;;;;;;;;;;;19.98;73.70;100690.94;5068283;28;1337;-78
2021/05/29 02:32:43;;;;;;;;;;;;;;;19.96;74.79;100684.88;5071017;28;1356;-78
2021/05/29 02:35:10;;;;;;;;;;;;;;;20.01;74.55;100699.53;5078228;28;1384;-79
2021/05/29 02:37:36;;;;;;;;;;;;;;;20.01;73.91;100696.00;5073111;28;1949;-77
2021/05/29 02:40:02;;;;;;;;;;;;;;;20.02;74.55;100700.41;5071050;28;1268;-78
2021/05/29 02:42:28;;;;;;;;;;;;;;;19.95;74.44;100677.78;5070245;28;1448;-77
2021/05/29 02:44:55;;;;;;;;;;;;;;;20.02;75.78;100697.72;5074344;28;1552;-78
2021/05/29 02:47:22;;;;;;;;;;;;;;;20.02;77.29;100705.75;5077315;28;1229;-77
2021/05/29 02:49:49;;;;;;;;;;;;;;;19.98;77.15;100696.31;5075716;28;1678;-77
2021/05/29 02:52:16;;;;;;;;;;;;;;;19.96;78.03;100695.59;5074674;28;1415;-77
2021/05/29 02:54:43;;;;;;;;;;;;;;;19.85;73.99;100689.38;5075387;28;1591;-77
2021/05/29 02:57:10;;;;;;;;;;;;;;;19.93;76.55;100701.25;5074720;28;1967;-77
2021/05/29 02:59:36;;;;;;;;;;;;;;;19.88;72.97;100690.09;5078884;28;1059;-78
2021/05/29 03:02:03;;;;;;;;;;;;;;;19.92;72.06;100699.56;5076207;28;1499;-79
2021/05/29 03:04:29;;;;;;;;;;;;;;;19.93;72.23;100701.25;5074360;28;1626;-77
2021/05/29 03:06:56;;;;;;;;;;;;;;;19.96;70.94;100695.59;5074402;28;1277;-77
2021/05/29 03:09:22;;;;;;;;;;;;;;;19.95;70.85;100688.53;5074997;28;1564;-78
2021/05/29 03:11:50;;;;;;;;;;;;;;;19.97;70.83;100702.66;5075570;28;1646;-78
2021/05/29 03:14:16;;;;;;;;;;;;;;;19.96;71.81;100698.28;5074398;28;1069;-77
2021/05/29 03:16:42;;;;;;;;;;;;;;;19.93;73.35;100702.09;5076316;22;3631;-46
2021/05/29 03:19:09;;;;;;;;;;;;;;;19.90;74.98;100698.88;5032015;28;1111;-45
2021/05/29 03:21:35;;;;;;;;;;;;;;;19.93;71.51;100698.56;5030205;28;1700;-46
2021/05/29 03:24:07;;;;;;;;;;;;;;;19.97;71.76;100711.53;5030894;28;1640;-46
2021/05/29 03:26:34;;;;;;;;;;;;;;;19.96;71.50;100722.44;5031610;28;1683;-44
2021/05/29 03:29:04;;;;;;;;;;;;;;;19.96;75.26;100700.97;5031776;28;1827;-43
2021/05/29 03:31:32;;;;;;;;;;;;;;;19.91;76.32;100722.84;5013220;28;1818;-43
2021/05/29 03:33:59;;;;;;;;;;;;;;;19.93;71.89;100725.41;5014564;28;1800;-43
2021/05/29 03:36:25;;;;;;;;;;;;;;;19.94;71.69;100727.09;5031074;28;1906;-43
2021/05/29 03:38:52;;;;;;;;;;;;;;;19.94;73.17;100729.78;5031583;28;1175;-43
2021/05/29 03:41:19;;;;;;;;;;;;;;;19.96;75.83;100739.38;5028727;28;1872;-43
2021/05/29 03:43:45;;;;;;;;;;;;;;;19.96;76.25;100735.88;5030246;28;1651;-43
2021/05/29 03:46:19;;;;;;;;;;;;;;;19.96;75.68;100728.66;5030189;28;2088;-45
2021/05/29 03:51:27;;;;;;;;;;;;;;;19.93;75.61;100739.66;5029742;28;1583;-43
2021/05/29 03:53:56;;;;;;;;;;;;;;;19.96;75.12;100744.75;5029867;28;1299;-43
2021/05/29 03:56:25;;;;;;;;;;;;;;;19.86;73.73;100743.91;5031052;28;1898;-43
2021/05/29 03:58:54;;;;;;;;;;;;;;;19.88;76.45;100752.66;5031577;28;1954;-44
2021/05/29 04:01:24;;;;;;;;;;;;;;;19.88;74.68;100752.66;5030909;28;1519;-43
2021/05/29 04:03:50;;;;;;;;;;;;;;;19.91;75.05;100764.94;5031298;28;1817;-43
2021/05/29 04:06:20;;;;;;;;;;;;;;;19.93;74.79;100762.97;5032057;28;1127;-43
2021/05/29 04:08:47;;;;;;;;;;;;;;;19.97;75.71;100757.16;5031398;28;1808;-43
2021/05/29 04:11:15;;;;;;;;;;;;;;;19.88;74.08;100760.72;5031057;28;1943;-43
2021/05/29 04:13:46;;;;;;;;;;;;;;;19.88;75.37;100749.16;5031306;28;1989;-43
2021/05/29 04:16:12;;;;;;;;;;;;;;;19.83;73.64;100755.75;5031086;28;1890;-44
2021/05/29 04:18:41;;;;;;;;;;;;;;;19.82;71.54;100748.72;5031921;28;1906;-43
2021/05/29 04:23:53;;;;;;;;;;;;;;;19.87;71.95;100772.44;5026433;28;2389;-43
2021/05/29 04:29:16;;;;;;;;;;;;;;;19.92;75.80;100785.44;5022703;28;2462;-43
2021/05/29 04:31:45;;;;;;;;;;;;;;;19.90;74.82;100776.69;5020258;28;2070;-43
2021/05/29 04:34:11;;;;;;;;;;;;;;;19.88;76.50;100790.25;5034253;28;1670;-43
2021/05/29 04:36:38;;;;;;;;;;;;;;;19.85;75.91;100777.94;5034366;28;1952;-44
2021/05/29 04:39:05;;;;;;;;;;;;;;;19.86;75.57;100778.81;5033420;28;1551;-44
2021/05/29 04:41:32;;;;;;;;;;;;;;;19.88;76.40;100789.41;5035239;28;1087;-43
2021/05/29 04:44:06;;;;;;;;;;;;;;;19.85;76.91;100780.63;5033666;28;1827;-43
2021/05/29 04:46:39;;;;;;;;;;;;;;;19.89;74.45;100793.75;5034269;28;1776;-43
2021/05/29 04:49:18;;;;;;;;;;;;;;;19.83;74.30;100803.22;5034361;28;1809;-43
2021/05/29 04:51:47;;;;;;;;;;;;;;;19.81;70.98;100800.66;5017209;28;1869;-43
2021/05/29 04:54:17;;;;;;;;;;;;;;;19.83;70.52;100792.50;5027172;28;1584;-43
2021/05/29 04:56:43;;;;;;;;;;;;;;;19.84;70.19;100796.88;5024446;28;1906;-45
2021/05/29 04:59:10;;;;;;;;;;;;;;;19.85;70.14;100807.44;5022011;28;1241;-43
2021/05/29 05:01:37;;;;;;;;;;;;;;;19.82;69.29;100796.19;5018900;28;1814;-43
2021/05/29 05:04:06;;;;;;;;;;;;;;;19.84;70.01;100805.78;5024424;28;1639;-43
2021/05/29 05:06:40;;;;;;;;;;;;;;;19.81;69.14;100806.03;5020148;28;1854;-43
2021/05/29 05:09:08;;;;;;;;;;;;;;;19.81;69.06;100814.09;5020749;28;1366;-44
2021/05/29 05:11:38;;;;;;;;;;;;;;;19.85;69.56;100807.44;5025143;28;1120;-43
2021/05/29 05:14:07;;;;;;;;;;;;;;;19.91;70.05;100813.25;5022991;28;1738;-44
2021/05/29 05:16:35;;;;;;;;;;;;;;;19.99;70.58;100803.50;5024796;28;1914;-43
2021/05/29 05:19:00;;;;;;;;;;;;;;;20.01;72.65;100780.06;5025081;28;2703;-45
2021/05/29 05:21:27;;;;;;;;;;;;;;;20.05;73.88;100786.00;5027236;28;1590;-46
2021/05/29 05:23:54;;;;;;;;;;;;;;;20.06;73.98;100788.53;5023918;28;1605;-46
2021/05/29 05:26:20;;;;;;;;;;;;;;;20.15;73.27;100802.94;5022358;28;1688;-45
2021/05/29 05:28:46;;;;;;;;;;;;;;;20.22;73.08;100803.22;5027151;28;1485;-47
2021/05/29 05:31:12;;;;;;;;;;;;;;;20.16;74.82;100782.31;5023745;28;1599;-45
2021/05/29 05:33:41;;;;;;;;;;;;;;;20.17;75.32;100790.22;5024971;28;1279;-45
2021/05/29 05:36:08;;;;;;;;;;;;;;;20.19;75.60;100785.59;5025799;28;1147;-45
2021/05/29 05:38:34;;;;;;;;;;;;;;;20.20;76.49;100778.38;5024068;28;1973;-46
2021/05/29 05:41:01;;;;;;;;;;;;;;;20.21;76.05;100775.53;5021672;28;1585;-45
2021/05/29 05:43:27;;;;;;;;;;;;;;;20.28;74.44;100789.22;5022509;28;1557;-45
2021/05/29 05:45:53;;;;;;;;;;;;;;;20.28;75.38;100773.13;5023949;28;1307;-45
2021/05/29 05:48:19;;;;;;;;;;;;;;;20.28;75.19;100791.91;5024431;28;1618;-46
2021/05/29 05:50:53;;;;;;;;;;;;;;;20.29;75.21;100784.69;5023174;28;1616;-45
2021/05/29 05:53:19;;;;;;;;;;;;;;;20.30;74.98;100803.38;5024448;28;1763;-45
2021/05/29 05:55:45;;;;;;;;;;;;;;;20.34;74.49;100801.25;5022620;28;1447;-45
2021/05/29 05:58:12;;;;;;;;;;;;;;;20.35;73.26;100808.28;5022471;28;1931;-46
2021/05/29 06:00:38;;;;;;;;;;;;;;;20.38;74.12;100805.34;5024687;28;1341;-45
2021/05/29 06:03:04;;;;;;;;;;;;;;;20.45;74.80;100814.50;5018516;28;1559;-46
2021/05/29 06:05:31;;;;;;;;;;;;;;;20.44;75.49;100826.25;5022575;28;1502;-45
2021/05/29 06:07:57;;;;;;;;;;;;;;;20.36;75.57;100828.81;5022987;28;1446;-45
2021/05/29 06:10:24;;;;;;;;;;;;;;;20.36;74.75;100836.88;5024598;28;1565;-45
2021/05/29 06:12:51;;;;;;;;;;;;;;;20.45;75.35;100841.34;5025822;28;1733;-45
2021/05/29 06:18:23;;;;;;;;;;;;;;;20.40;75.02;100830.22;5024824;28;1985;-45
2021/05/29 06:21:00;;;;;;;;;;;;;;;20.42;76.88;100830.91;5023421;28;1499;-46
2021/05/29 06:23:30;;;;;;;;;;;;;;;20.50;74.89;100844.47;5028019;28;1939;-44
2021/05/29 06:25:57;;;;;;;;;;;;;;;20.66;74.87;100822.41;5032279;28;1545;-45
2021/05/29 06:28:26;;;;;;;;;;;;;;;20.55;75.94;100823.41;5028654;28;1401;-45
2021/05/29 06:30:56;;;;;;;;;;;;;;;20.57;74.79;100826.81;5027989;28;1085;-46
2021/05/29 06:33:23;;;;;;;;;;;;;;;20.59;75.17;100816.78;5024308;28;2113;-46
2021/05/29 06:35:49;;;;;;;;;;;;;;;20.53;74.91;100822.72;5018151;28;2054;-45
2021/05/29 06:38:16;;;;;;;;;;;;;;;20.63;74.29;100817.31;5028280;28;1971;-45
2021/05/29 07:43:37;;;;;;;;;;;;;;;20.61;74.00;100814.81;5084349;27;11691;-45
2021/05/29 07:46:03;;;;;;;;;;;;;;;20.59;72.82;100821.28;5040501;28;2109;-45
2021/05/29 07:48:30;;;;;;;;;;;;;;;20.60;73.82;100821.16;5019986;28;11465;-46
2021/05/29 07:51:00;;;;;;;;;;;;;;;20.60;73.29;100829.22;5020639;28;2596;-45
2021/05/29 07:53:27;;;;;;;;;;;;;;;20.58;73.67;100820.41;5017538;28;1648;-46
2021/05/29 07:55:53;;;;;;;;;;;;;;;20.56;73.79;100800.91;5019441;28;1676;-45
2021/05/29 07:58:19;;;;;;;;;;;;;;;20.56;74.10;100808.97;5016996;28;1762;-46
2021/05/29 08:00:50;;;;;;;;;;;;;;;20.58;73.18;100817.72;5023593;28;1913;-45
2021/05/29 08:03:16;;;;;;;;;;;;;;;20.58;73.69;100803.47;5020480;28;1791;-46
2021/05/29 08:05:42;;;;;;;;;;;;;;;20.62;73.30;100799.53;5021679;28;1563;-46
2021/05/29 08:08:08;;;;;;;;;;;;;;;20.60;73.75;100806.88;5023955;28;1544;-46
2021/05/29 08:10:34;;;;;;;;;;;;;;;20.62;73.79;100795.00;5019862;28;1857;-45
2021/05/29 08:13:01;;;;;;;;;;;;;;;20.63;74.10;100812.81;5017292;28;1910;-45
2021/05/29 08:15:27;;;;;;;;;;;;;;;20.65;73.98;100810.84;5019367;28;1591;-45
2021/05/29 08:17:54;;;;;;;;;;;;;;;20.65;74.35;100805.47;5023688;28;1752;-46
2021/05/29 08:20:20;;;;;;;;;;;;;;;20.65;74.04;100804.59;5023710;28;1714;-45
2021/05/29 08:22:46;;;;;;;;;;;;;;;20.65;74.32;100818.03;5022321;28;1749;-46
2021/05/29 08:25:13;;;;;;;;;;;;;;;20.66;74.07;100807.13;5017339;28;1689;-46
2021/05/29 08:27:39;;;;;;;;;;;;;;;20.65;74.35;100816.19;5015378;28;1739;-45
2021/05/29 08:30:05;;;;;;;;;;;;;;;20.69;73.91;100818.59;5019900;28;1251;-45
2021/05/29 08:32:31;;;;;;;;;;;;;;;20.68;73.60;100819.59;5010672;28;1906;-45
2021/05/29 08:34:58;;;;;;;;;;;;;;;20.68;74.66;100806.16;5021851;28;2932;-45
2021/05/29 08:37:24;;;;;;;;;;;;;;;20.70;74.80;100801.47;5016429;28;1605;-45
2021/05/29 08:39:50;;;;;;;;;;;;;;;20.67;74.35;100813.34;5015726;28;1199;-45
2021/05/29 08:42:17;;;;;;;;;;;;;;;20.62;73.97;100813.78;5014307;28;1530;-45
2021/05/29 08:44:42;;;;;;;;;;;;;;;20.69;72.79;100807.84;5003162;28;1970;-45
2021/05/29 08:47:08;;;;;;;;;;;;;;;20.78;72.77;100801.59;5011602;28;1646;-45
2021/05/29 08:49:35;;;;;;;;;;;;;;;20.77;74.09;100791.81;5001980;28;1809;-45
2021/05/29 08:52:03;;;;;;;;;;;;;;;20.78;73.40;100797.06;5012253;28;1969;-43
2021/05/29 08:54:30;;;;;;;;;;;;;;;20.80;73.36;100781.63;5003880;28;1813;-43
2021/05/29 08:56:56;;;;;;;;;;;;;;;20.80;73.74;100807.66;5007214;28;1592;-43
2021/05/29 08:59:22;;;;;;;;;;;;;;;20.84;73.67;100783.03;5005556;28;2212;-43
2021/05/29 09:01:48;;;;;;;;;;;;;;;20.89;74.13;100782.59;5008077;28;1674;-44
2021/05/29 09:04:14;;;;;;;;;;;;;;;20.92;74.29;100781.47;5009848;28;1579;-43
2021/05/29 09:06:42;;;;;;;;;;;;;;;20.92;73.95;100785.00;5008718;28;1484;-43
2021/05/29 09:09:09;;;;;;;;;;;;;;;20.96;73.38;100791.75;5015003;28;1710;-45
2021/05/29 09:11:40;;;;;;;;;;;;;;;20.90;73.34;100775.38;5011685;28;1980;-43
2021/05/29 09:14:24;;;;;;;;;;;;;;;20.93;74.39;100775.06;5011335;28;2010;-43
2021/05/29 09:16:59;;;;;;;;;;;;;;;21.03;73.21;100770.53;5016184;28;1608;-42
2021/05/29 09:19:25;;;;;;;;;;;;;;;21.13;72.83;100773.13;5008782;28;2756;-45
2021/05/29 09:21:51;;;;;;;;;;;;;;;21.08;72.68;100788.88;5015497;28;1460;-46
2021/05/29 09:24:18;;;;;;;;;;;;;;;21.02;71.89;100764.28;5014794;28;1771;-45
2021/05/29 09:26:46;;;;;;;;;;;;;;;20.97;70.81;100771.97;5015568;28;1698;-45
2021/05/29 09:29:17;;;;;;;;;;;;;;;20.97;71.46;100769.28;5017865;28;1501;-45
2021/05/29 09:31:53;;;;;;;;;;;;;;;20.95;71.12;100768.56;5017766;28;1934;-46
2021/05/29 09:34:33;;;;;;;;;;;;;;;20.98;70.37;100778.19;5004442;28;1494;-45
2021/05/29 09:37:06;;;;;;;;;;;;;;;20.94;70.31;100758.81;5012130;28;1147;-45
2021/05/29 09:39:34;;;;;;;;;;;;;;;20.93;72.85;100745.50;5004668;28;1121;-45
2021/05/29 09:42:01;;;;;;;;;;;;;;;20.99;72.07;100759.22;5004331;28;1661;-45
2021/05/29 09:44:27;;;;;;;;;;;;;;;21.00;72.19;100758.22;5012030;28;2814;-46
2021/05/29 09:46:54;;;;;;;;;;;;;;;20.98;73.18;100765.56;5010658;28;1602;-45
2021/05/29 09:49:20;;;;;;;;;;;;;;;20.99;72.88;100743.09;5011129;28;1503;-48
2021/05/29 09:51:46;;;;;;;;;;;;;;;20.99;72.95;100759.22;5001901;28;1985;-45
2021/05/29 09:54:12;;;;;;;;;;;;;;;21.03;72.08;100757.91;5013429;28;2208;-43
2021/05/29 09:56:41;;;;;;;;;;;;;;;20.96;73.37;100738.00;5007830;28;2112;-43
2021/05/29 09:59:08;;;;;;;;;;;;;;;20.93;72.56;100743.69;5008583;28;1563;-43
2021/05/29 10:01:39;;;;;;;;;;;;;;;20.93;72.98;100754.44;5008855;28;1483;-43
2021/05/29 10:04:05;;;;;;;;;;;;;;;20.91;73.30;100751.06;5010588;28;2039;-43
2021/05/29 10:06:31;;;;;;;;;;;;;;;20.90;72.64;100756.56;5011230;28;1596;-44
2021/05/29 10:08:57;;;;;;;;;;;;;;;20.94;72.59;100753.44;5008283;28;1566;-43
2021/05/29 10:11:23;;;;;;;;;;;;;;;20.94;72.53;100766.88;5003416;28;1979;-43
2021/05/29 10:13:50;;;;;;;;;;;;;;;20.93;72.80;100754.44;5005772;28;1839;-43
2021/05/29 10:16:17;;;;;;;;;;;;;;;21.05;71.27;100760.47;4999216;28;1414;-43
2021/05/29 10:18:46;;;;;;;;;;;;;;;21.01;68.91;100754.53;5007216;28;1656;-43
2021/05/29 10:21:12;;;;;;;;;;;;;;;21.05;67.03;100758.63;5009623;28;1460;-43
2021/05/29 10:23:38;;;;;;;;;;;;;;;21.02;66.48;100761.59;5001282;28;1567;-43
2021/05/29 10:26:04;;;;;;;;;;;;;;;21.05;69.29;100757.78;5006860;28;1606;-43
2021/05/29 10:28:31;;;;;;;;;;;;;;;21.15;68.92;100757.69;5010733;28;1653;-43
2021/05/29 10:30:58;;;;;;;;;;;;;;;21.17;70.51;100750.31;5007452;28;1338;-46
2021/05/29 10:33:24;;;;;;;;;;;;;;;21.13;70.44;100754.31;4996973;28;2049;-45
2021/05/29 10:35:50;;;;;;;;;;;;;;;21.06;70.41;100760.28;5004078;28;1700;-44
2021/05/29 10:38:16;;;;;;;;;;;;;;;21.05;70.56;100764.00;5007752;28;1525;-44
2021/05/29 10:40:43;;;;;;;;;;;;;;;20.99;71.00;100764.59;5003319;28;2180;-44
2021/05/29 10:43:12;;;;;;;;;;;;;;;21.00;70.38;100777.03;5001472;28;1652;-45
2021/05/29 10:45:39;;;;;;;;;;;;;;;20.98;70.72;100762.03;5002262;28;1010;-42
2021/05/29 10:48:08;;;;;;;;;;;;;;;20.95;71.61;100767.72;4998855;28;1983;-42
2021/05/29 10:50:59;;;;;;;;;;;;;;;20.92;71.75;100755.41;5007444;28;1758;-42
2021/05/29 10:53:34;;;;;;;;;;;;;;;20.92;72.16;100755.41;4991869;28;2022;-42
2021/05/29 10:56:19;;;;;;;;;;;;;;;20.92;72.26;100771.53;5002190;28;1814;-42
2021/05/29 10:59:07;;;;;;;;;;;;;;;20.92;71.34;100750.03;5002563;28;1592;-43
2021/05/29 11:01:51;;;;;;;;;;;;;;;20.94;71.54;100748.06;5002121;28;2317;-42
2021/05/29 11:04:22;;;;;;;;;;;;;;;20.92;71.84;100755.41;4999076;28;1523;-42
2021/05/29 11:06:49;;;;;;;;;;;;;;;20.92;72.17;100741.97;5001188;28;1552;-42
2021/05/29 11:09:16;;;;;;;;;;;;;;;20.92;71.96;100749.19;5001990;28;2746;-42
2021/05/29 11:11:52;;;;;;;;;;;;;;;20.92;72.02;100744.66;5000748;28;1910;-42
2021/05/29 11:14:19;;;;;;;;;;;;;;;20.88;72.38;100729.84;5005336;28;1473;-44
2021/05/29 11:17:04;;;;;;;;;;;;;;;20.87;72.51;100738.91;5010371;28;1449;-42
2021/05/29 11:19:32;;;;;;;;;;;;;;;20.88;72.19;100734.38;5010612;28;1403;-42
2021/05/29 11:21:58;;;;;;;;;;;;;;;20.89;71.94;100734.22;5006919;28;1468;-42
2021/05/29 11:24:25;;;;;;;;;;;;;;;20.89;72.94;100731.53;5006952;28;1657;-42
2021/05/29 11:26:51;;;;;;;;;;;;;;;20.84;72.20;100739.19;5010668;28;1451;-42
2021/05/29 11:29:17;;;;;;;;;;;;;;;20.86;72.41;100727.28;5010832;28;1783;-42
2021/05/29 11:31:43;;;;;;;;;;;;;;;20.85;71.99;100724.78;5010251;28;2037;-42
2021/05/29 11:34:09;;;;;;;;;;;;;;;20.84;72.25;100715.84;5011869;28;1706;-42
2021/05/29 11:36:38;;;;;;;;;;;;;;;20.86;72.35;100727.28;5003827;28;1544;-42
2021/05/29 11:39:07;;;;;;;;;;;;;;;20.86;72.35;100716.53;5004426;28;1287;-42
2021/05/29 11:41:33;;;;;;;;;;;;;;;20.89;71.82;100730.66;5003015;28;1545;-42
2021/05/29 11:43:59;;;;;;;;;;;;;;;20.86;72.13;100715.69;5004453;28;1580;-43
2021/05/29 11:46:26;;;;;;;;;;;;;;;20.85;73.11;100714.03;5006169;28;1687;-42
2021/05/29 11:48:54;;;;;;;;;;;;;;;20.74;71.96;100688.16;5001394;28;1552;-42
2021/05/29 11:51:21;;;;;;;;;;;;;;;20.85;72.03;100714.03;5003970;28;1949;-42
2021/05/29 11:53:50;;;;;;;;;;;;;;;20.87;72.74;100728.16;5004856;28;1482;-42
2021/05/29 11:56:17;;;;;;;;;;;;;;;20.86;72.24;100718.38;5002574;28;1772;-43
2021/05/29 11:58:44;;;;;;;;;;;;;;;20.84;72.21;100715.84;5004556;28;1567;-42
2021/05/29 12:01:11;;;;;;;;;;;;;;;20.83;72.13;100713.28;4997942;28;1300;-42
2021/05/29 12:03:38;;;;;;;;;;;;;;;20.84;72.73;100701.56;5000891;28;1826;-42
2021/05/29 12:06:04;;;;;;;;;;;;;;;20.86;72.74;100715.69;5001823;28;1580;-41
2021/05/29 12:08:30;;;;;;;;;;;;;;;20.95;71.87;100712.13;4999422;28;1697;-42
2021/05/29 12:10:57;;;;;;;;;;;;;;;21.00;69.90;100707.13;5005288;28;1342;-42
2021/05/29 12:13:24;;;;;;;;;;;;;;;20.80;69.45;100708.22;5007544;28;1910;-44
2021/05/29 12:15:54;;;;;;;;;;;;;;;20.75;70.33;100699.75;5007654;28;1638;-42
2021/05/29 12:18:20;;;;;;;;;;;;;;;20.80;70.07;100698.31;5009772;28;1643;-41
2021/05/29 12:20:57;;;;;;;;;;;;;;;20.71;68.96;100698.38;5013935;28;1462;-42
2021/05/29 12:23:23;;;;;;;;;;;;;;;20.61;68.93;100696.59;5007847;28;1469;-42
2021/05/29 12:25:49;;;;;;;;;;;;;;;20.62;69.30;100686.69;5010737;28;1398;-42
2021/05/29 12:28:16;;;;;;;;;;;;;;;20.73;70.11;100704.44;5004515;28;1407;-42
2021/05/29 12:30:42;;;;;;;;;;;;;;;20.83;69.94;100695.34;5001382;28;1373;-42
2021/05/29 12:33:18;;;;;;;;;;;;;;;20.80;70.07;100690.25;5006395;28;1906;-42
2021/05/29 12:35:44;;;;;;;;;;;;;;;20.85;69.78;100685.28;5001894;28;1595;-43
2021/05/29 12:38:10;;;;;;;;;;;;;;;20.85;70.47;100687.16;5003469;28;1459;-42
2021/05/29 12:40:36;;;;;;;;;;;;;;;20.82;71.40;100682.88;5004941;28;1468;-42
2021/05/29 12:43:02;;;;;;;;;;;;;;;20.90;71.08;100686.69;5001759;28;1304;-42
2021/05/29 12:45:29;;;;;;;;;;;;;;;20.90;70.62;100679.47;5003957;28;1283;-42
2021/05/29 12:47:56;;;;;;;;;;;;;;;20.93;71.24;100706.06;5009942;28;1615;-42
2021/05/29 12:50:24;;;;;;;;;;;;;;;20.93;70.84;100684.53;5007937;28;2223;-42
2021/05/29 12:52:50;;;;;;;;;;;;;;;20.96;71.35;100702.22;5014094;28;1906;-42
2021/05/29 12:55:20;;;;;;;;;;;;;;;20.92;71.81;100693.59;5008092;28;1939;-42
2021/05/29 12:57:46;;;;;;;;;;;;;;;20.92;70.47;100682.84;5012440;28;1980;-42
2021/05/29 13:00:28;;;;;;;;;;;;;;;20.96;71.59;100689.59;5003031;28;1393;-43
2021/05/29 13:08:55;;;;;;;;;;;;;;;20.96;71.91;100669.94;5003916;28;1691;-42
2021/05/29 13:11:28;;;;;;;;;;;;;;;20.94;72.09;100675.47;5004219;28;1981;-42
2021/05/29 13:13:57;;;;;;;;;;;;;;;21.08;72.48;100673.28;5002684;28;1603;-42
2021/05/29 13:16:23;;;;;;;;;;;;;;;21.04;72.42;100676.25;4996594;28;1475;-42
2021/05/29 13:19:00;;;;;;;;;;;;;;;21.03;72.25;100673.75;5009947;28;1823;-42
2021/05/29 13:21:26;;;;;;;;;;;;;;;21.06;71.72;100665.34;5002966;28;1545;-42
2021/05/29 13:23:54;;;;;;;;;;;;;;;21.15;72.63;100677.03;5006980;28;1484;-42
2021/05/29 13:26:20;;;;;;;;;;;;;;;21.13;71.83;100662.91;5001661;28;1554;-42
2021/05/29 13:28:46;;;;;;;;;;;;;;;21.13;73.11;100657.50;5004408;28;1620;-42
2021/05/29 13:31:12;;;;;;;;;;;;;;;21.22;71.83;100659.31;5002235;28;1496;-42
2021/05/29 13:33:38;;;;;;;;;;;;;;;21.18;71.09;100665.97;5003135;28;1906;-42
2021/05/29 13:36:05;;;;;;;;;;;;;;;21.13;69.15;100647.63;5003838;28;1454;-43
2021/05/29 13:38:31;;;;;;;;;;;;;;;21.10;67.06;100661.38;5004603;28;1653;-43
2021/05/29 13:40:57;;;;;;;;;;;;;;;21.14;65.33;100673.50;4999706;28;1848;-43
2021/05/29 13:43:23;;;;;;;;;;;;;;;21.16;65.11;100659.91;5002694;28;1578;-43
2021/05/29 13:45:49;;;;;;;;;;;;;;;21.22;65.91;100640.47;5008227;28;1673;-44
2021/05/29 13:48:16;;;;;;;;;;;;;;;21.23;63.93;100647.56;5001883;28;1463;-44
2021/05/29 13:50:42;;;;;;;;;;;;;;;21.25;63.44;100661.69;5003547;28;1447;-43
2021/05/29 13:53:10;;;;;;;;;;;;;;;21.24;63.05;100642.00;5008406;28;2021;-43
2021/05/29 13:55:36;;;;;;;;;;;;;;;21.29;64.02;100651.47;5006840;28;1906;-43
2021/05/29 13:58:02;;;;;;;;;;;;;;;21.23;65.22;100661.00;5002523;28;1545;-43
2021/05/29 14:00:28;;;;;;;;;;;;;;;21.15;67.02;100652.84;5010143;28;1958;-43
2021/05/29 14:02:54;;;;;;;;;;;;;;;21.14;67.22;100641.25;5002281;28;1377;-44
2021/05/29 14:05:20;;;;;;;;;;;;;;;21.11;66.42;100646.06;5003786;28;1736;-43
2021/05/29 14:07:47;;;;;;;;;;;;;;;21.10;66.91;100649.78;5006678;28;1259;-43
2021/05/29 14:10:14;;;;;;;;;;;;;;;21.12;67.21;100645.91;5002190;28;1442;-43